Time;durP1;ratioP1;P1;durP2;ratioP2;P2;SDS_P1;SDS_P2;PMS_P1;PMS_P2;Temp;Humidity;BMP_temperature;BMP_pressure;BME280_temperature;BME280_humidity;BME280_pressure;Samples;Min_cycle;Max_cycle;Signal;HPM_P1;HPM_P2
2022/10/16 00:02:20;;;;;;;8.77;1.20;;;13.30;99.90;;;;;;5058130;28;20056;-59
2022/10/16 00:04:46;;;;;;;6.65;1.50;;;13.30;99.90;;;;;;5065814;28;20116;-58
2022/10/16 00:07:12;;;;;;;4.90;1.10;;;13.30;99.90;;;;;;5058960;28;20033;-59
2022/10/16 00:09:37;;;;;;;3.80;1.00;;;13.20;99.90;;;;;;5069725;28;20048;-59
2022/10/16 00:12:04;;;;;;;4.30;0.88;;;13.20;99.90;;;;;;5060509;28;20059;-59
2022/10/16 00:14:30;;;;;;;7.22;1.48;;;13.20;99.90;;;;;;5061130;28;20041;-58
2022/10/16 00:16:55;;;;;;;6.05;2.00;;;13.20;99.90;;;;;;5050093;28;20040;-59
2022/10/16 00:19:21;;;;;;;4.90;1.17;;;13.20;99.90;;;;;;5050410;28;20556;-59
2022/10/16 00:21:46;;;;;;;5.73;1.63;;;13.20;99.90;;;;;;5063729;28;20048;-59
2022/10/16 00:24:12;;;;;;;6.05;1.58;;;13.20;99.90;;;;;;5051685;28;20776;-59
2022/10/16 00:26:39;;;;;;;2.97;1.30;;;13.20;99.90;;;;;;5052311;28;20048;-59
2022/10/16 00:29:04;;;;;;;5.47;1.17;;;13.20;99.90;;;;;;5078597;28;20289;-57
2022/10/16 00:31:30;;;;;;;9.45;1.67;;;13.20;99.90;;;;;;5060977;28;20412;-59
2022/10/16 00:33:56;;;;;;;4.75;1.52;;;13.20;99.90;;;;;;5051672;28;20036;-58
2022/10/16 00:36:24;;;;;;;5.15;1.20;;;13.10;99.90;;;;;;5057057;28;20032;-59
2022/10/16 00:38:53;;;;;;;4.53;1.60;;;13.20;99.90;;;;;;5050569;28;20074;-59
2022/10/16 00:41:19;;;;;;;8.25;1.50;;;13.10;99.90;;;;;;5057508;28;20086;-58
2022/10/16 00:43:47;;;;;;;3.08;1.23;;;13.20;99.90;;;;;;5068811;28;20053;-59
2022/10/16 00:46:22;;;;;;;7.43;1.70;;;13.10;99.90;;;;;;5057470;28;20090;-58
2022/10/16 00:49:00;;;;;;;5.50;1.80;;;13.20;99.90;;;;;;5069059;28;20039;-57
2022/10/16 00:51:31;;;;;;;4.80;1.10;;;13.20;99.90;;;;;;5062504;28;20037;-59
2022/10/16 00:53:57;;;;;;;6.32;1.30;;;13.10;99.90;;;;;;5049852;28;20047;-59
2022/10/16 00:56:22;;;;;;;8.45;1.67;;;13.10;99.90;;;;;;5055074;28;20455;-58
2022/10/16 00:58:48;;;;;;;9.98;1.48;;;13.10;99.90;;;;;;5068646;28;20132;-58
2022/10/16 01:01:14;;;;;;;4.72;1.02;;;13.10;99.90;;;;;;5055813;28;20039;-59
2022/10/16 01:03:40;;;;;;;3.65;1.40;;;13.10;99.90;;;;;;5061755;28;20068;-59
2022/10/16 01:06:27;;;;;;;4.72;1.25;;;13.10;99.90;;;;;;5067500;28;20044;-59
2022/10/16 01:09:10;;;;;;;7.22;1.50;;;13.10;99.90;;;;;;5050647;28;20470;-59
2022/10/16 01:12:09;;;;;;;3.13;1.20;;;13.10;99.90;;;;;;5055135;28;20040;-59
2022/10/16 01:14:43;;;;;;;3.53;1.00;;;13.10;99.90;;;;;;5052778;28;20099;-59
2022/10/16 01:17:15;;;;;;;4.72;1.70;;;13.10;99.90;;;;;;5056571;28;20025;-56
2022/10/16 01:20:25;;;;;;;5.20;1.73;;;13.10;99.90;;;;;;5049740;28;20045;-59
2022/10/16 01:23:06;;;;;;;5.38;1.67;;;13.10;99.90;;;;;;5067881;28;20051;-59
2022/10/16 01:26:08;;;;;;;6.10;1.17;;;13.10;99.90;;;;;;5067785;28;20044;-58
2022/10/16 01:28:45;;;;;;;7.82;1.92;;;13.10;99.90;;;;;;5069812;28;20037;-59
2022/10/16 01:31:14;;;;;;;;;;;13.00;99.90;;;;;;5051872;28;20041;-59
2022/10/16 01:33:45;;;;;;;4.60;2.08;;;13.00;99.90;;;;;;5048944;28;19925;-58
2022/10/16 01:36:16;;;;;;;3.30;1.63;;;13.10;99.90;;;;;;5050696;28;20068;-59
2022/10/16 01:38:44;;;;;;;7.85;1.73;;;13.00;99.90;;;;;;5051830;28;20032;-59
2022/10/16 01:41:19;;;;;;;6.38;1.88;;;13.00;99.90;;;;;;5053057;28;20041;-59
2022/10/16 01:43:57;;;;;;;4.85;1.20;;;13.00;99.90;;;;;;5072470;28;20459;-58
2022/10/16 01:46:24;;;;;;;4.40;1.75;;;13.00;99.90;;;;;;5062696;28;20383;-59
2022/10/16 01:48:51;;;;;;;5.30;1.95;;;13.00;99.90;;;;;;5052916;28;20040;-59
2022/10/16 01:51:19;;;;;;;5.97;1.30;;;13.00;99.90;;;;;;5061018;28;20048;-59
2022/10/16 01:53:50;;;;;;;5.22;1.10;;;13.00;99.90;;;;;;5053567;28;20037;-59
2022/10/16 01:56:17;;;;;;;4.38;1.45;;;12.90;99.90;;;;;;5058724;28;20488;-59
2022/10/16 01:58:49;;;;;;;4.28;1.90;;;12.90;99.90;;;;;;5054269;28;20076;-57
2022/10/16 02:01:17;;;;;;;4.25;1.23;;;13.00;99.90;;;;;;5057421;28;20047;-59
2022/10/16 02:03:46;;;;;;;4.30;1.05;;;12.90;99.90;;;;;;5053071;28;20069;-59
2022/10/16 02:06:12;;;;;;;4.07;1.45;;;12.90;99.90;;;;;;5052811;28;20043;-58
2022/10/16 02:08:40;;;;;;;3.05;1.00;;;12.90;99.90;;;;;;5052734;28;20417;-58
2022/10/16 02:11:06;;;;;;;3.35;1.15;;;12.90;99.90;;;;;;5052348;28;20044;-59
2022/10/16 02:13:41;;;;;;;8.75;1.30;;;13.00;99.90;;;;;;5066356;28;20512;-59
2022/10/16 02:16:10;;;;;;;2.80;1.15;;;13.00;99.90;;;;;;5068547;28;20036;-57
2022/10/16 02:18:35;;;;;;;6.40;0.98;;;13.00;99.90;;;;;;5061837;28;20038;-57
2022/10/16 02:21:25;;;;;;;4.50;1.35;;;13.00;99.90;;;;;;5059618;28;20049;-59
2022/10/16 02:24:07;;;;;;;6.15;0.80;;;13.00;99.90;;;;;;5054896;28;20498;-58
2022/10/16 02:26:49;;;;;;;2.40;0.93;;;13.10;99.90;;;;;;5052314;28;20044;-59
2022/10/16 02:29:25;;;;;;;5.60;1.30;;;13.00;99.90;;;;;;5055535;28;20041;-57
2022/10/16 02:32:00;;;;;;;4.25;1.25;;;13.10;99.90;;;;;;5056859;28;20106;-59
2022/10/16 02:34:27;;;;;;;2.95;1.00;;;13.10;99.90;;;;;;5051342;28;20401;-59
2022/10/16 02:36:54;;;;;;;2.38;0.88;;;13.10;99.90;;;;;;5055484;28;20044;-59
2022/10/16 02:39:20;;;;;;;6.50;1.35;;;13.10;99.90;;;;;;5053909;28;20069;-59
2022/10/16 02:41:47;;;;;;;2.92;1.02;;;13.20;99.90;;;;;;5054270;28;20072;-59
2022/10/16 02:44:12;;;;;;;6.93;0.80;;;13.20;99.90;;;;;;5066674;28;20050;-59
2022/10/16 02:46:38;;;;;;;3.00;1.10;;;13.20;99.90;;;;;;5071973;28;20103;-59
2022/10/16 02:49:04;;;;;;;1.98;1.08;;;13.20;99.90;;;;;;5065937;28;20037;-58
2022/10/16 02:51:29;;;;;;;2.50;1.10;;;13.20;99.90;;;;;;5064230;28;20508;-58
2022/10/16 02:53:55;;;;;;;3.37;1.23;;;13.20;99.90;;;;;;5062020;28;20086;-58
2022/10/16 02:56:20;;;;;;;2.65;0.85;;;13.30;99.90;;;;;;5070635;28;20047;-59
2022/10/16 02:58:46;;;;;;;8.83;0.97;;;13.30;99.90;;;;;;5067071;28;20086;-59
2022/10/16 03:01:12;;;;;;;3.75;0.77;;;13.30;99.90;;;;;;5052110;28;20037;-59
2022/10/16 03:03:38;;;;;;;2.70;1.48;;;13.30;99.90;;;;;;5063237;28;20041;-59
2022/10/16 03:06:04;;;;;;;4.18;0.80;;;13.30;99.90;;;;;;5071665;28;20489;-60
2022/10/16 03:08:29;;;;;;;2.20;0.93;;;13.40;99.90;;;;;;5065205;28;20104;-58
2022/10/16 03:10:55;;;;;;;4.07;1.33;;;13.40;99.90;;;;;;5068522;28;20047;-58
2022/10/16 03:13:20;;;;;;;2.50;0.83;;;13.40;99.90;;;;;;5065257;28;20540;-59
2022/10/16 03:15:46;;;;;;;1.30;1.17;;;13.40;99.90;;;;;;5069537;28;20295;-58
2022/10/16 03:18:12;;;;;;;9.07;1.23;;;13.50;99.90;;;;;;5066161;28;20358;-59
2022/10/16 03:20:38;;;;;;;2.78;1.13;;;13.50;99.90;;;;;;5064755;28;20419;-59
2022/10/16 03:23:04;;;;;;;2.83;0.85;;;13.50;99.90;;;;;;5051325;28;20073;-59
2022/10/16 03:25:29;;;;;;;3.25;1.38;;;13.50;99.90;;;;;;5052322;28;20095;-59
2022/10/16 03:27:55;;;;;;;3.07;1.63;;;13.50;99.90;;;;;;5050962;28;20350;-59
2022/10/16 03:30:21;;;;;;;2.17;1.73;;;13.50;99.90;;;;;;5051590;28;20268;-59
2022/10/16 03:32:46;;;;;;;2.88;1.73;;;13.50;99.90;;;;;;5050385;28;20844;-59
2022/10/16 03:35:12;;;;;;;5.53;1.67;;;13.50;99.90;;;;;;5051680;28;20041;-59
2022/10/16 03:37:38;;;;;;;4.50;1.63;;;13.50;99.90;;;;;;5050840;28;20436;-59
2022/10/16 03:40:04;;;;;;;7.05;2.20;;;13.50;99.90;;;;;;5050875;28;20490;-56
2022/10/16 03:42:29;;;;;;;;;;;13.50;99.90;;;;;;5051063;28;20041;-58
2022/10/16 03:44:55;;;;;;;1.52;1.42;;;13.40;99.90;;;;;;5050735;28;19924;-59
2022/10/16 03:47:23;;;;;;;1.77;1.30;;;13.40;99.90;;;;;;5051329;28;20037;-58
2022/10/16 03:49:49;;;;;;;6.30;1.52;;;13.40;99.90;;;;;;5052297;28;20343;-59
2022/10/16 03:52:14;;;;;;;2.95;1.35;;;13.30;99.90;;;;;;5055006;28;20104;-59
2022/10/16 03:54:40;;;;;;;6.53;1.55;;;13.30;99.90;;;;;;5050382;28;20139;-60
2022/10/16 03:57:05;;;;;;;5.57;2.00;;;13.30;99.90;;;;;;5061780;28;20398;-58
2022/10/16 03:59:31;;;;;;;2.95;1.90;;;13.30;99.90;;;;;;5051154;28;20508;-58
2022/10/16 04:01:56;;;;;;;4.95;1.98;;;13.30;99.90;;;;;;5051252;28;20094;-59
2022/10/16 04:04:22;;;;;;;4.87;2.43;;;13.30;99.90;;;;;;5065990;28;20048;-59
2022/10/16 04:06:47;;;;;;;4.27;1.30;;;13.30;99.90;;;;;;5065331;28;20041;-59
2022/10/16 04:09:13;;;;;;;6.20;1.63;;;13.30;99.90;;;;;;5052471;28;20287;-58
2022/10/16 04:11:39;;;;;;;8.55;2.08;;;13.30;99.90;;;;;;5050169;28;20516;-58
2022/10/16 04:14:04;;;;;;;3.45;1.98;;;13.30;99.90;;;;;;5062492;28;20094;-58
2022/10/16 04:16:30;;;;;;;5.35;1.88;;;13.30;99.90;;;;;;5065446;28;20086;-59
2022/10/16 04:18:55;;;;;;;4.97;1.93;;;13.30;99.90;;;;;;5060538;28;20044;-59
2022/10/16 04:21:22;;;;;;;3.65;1.92;;;13.20;99.90;;;;;;5066087;28;20321;-59
2022/10/16 04:23:47;;;;;;;;;;;13.20;99.90;;;;;;5060992;28;20053;-59
2022/10/16 04:26:13;;;;;;;3.30;1.75;;;13.30;99.90;;;;;;5050091;28;19916;-59
2022/10/16 04:28:38;;;;;;;4.43;2.00;;;13.20;99.90;;;;;;5062047;28;20047;-58
2022/10/16 04:31:05;;;;;;;4.40;1.95;;;13.20;99.90;;;;;;5058837;28;20040;-59
2022/10/16 04:33:30;;;;;;;3.88;1.80;;;13.20;99.90;;;;;;5060302;28;20045;-59
2022/10/16 04:35:57;;;;;;;2.40;1.73;;;13.20;99.90;;;;;;5051542;28;20039;-57
2022/10/16 04:38:23;;;;;;;3.78;1.98;;;13.20;99.90;;;;;;5051525;28;20160;-59
2022/10/16 04:40:49;;;;;;;5.47;1.95;;;13.20;99.90;;;;;;5051003;28;20476;-58
2022/10/16 04:43:14;;;;;;;3.00;1.57;;;13.20;99.90;;;;;;5053658;28;20036;-58
2022/10/16 04:45:40;;;;;;;4.93;2.40;;;13.20;99.90;;;;;;5058168;28;20040;-59
2022/10/16 04:48:05;;;;;;;3.00;1.50;;;13.10;99.90;;;;;;5051149;28;20371;-58
2022/10/16 04:50:31;;;;;;;6.13;2.42;;;13.10;99.90;;;;;;5058935;28;20116;-59
2022/10/16 04:52:57;;;;;;;2.38;2.00;;;13.10;99.90;;;;;;5053281;28;20049;-59
2022/10/16 04:55:22;;;;;;;6.78;1.95;;;13.10;99.90;;;;;;5066966;28;20549;-59
2022/10/16 04:57:48;;;;;;;8.80;2.90;;;13.10;99.90;;;;;;5052329;28;20029;-59
2022/10/16 05:00:13;;;;;;;2.03;1.83;;;13.10;99.90;;;;;;5054129;28;20464;-58
2022/10/16 05:02:39;;;;;;;6.30;2.10;;;13.10;99.90;;;;;;5069852;28;20652;-59
2022/10/16 05:05:05;;;;;;;4.50;1.80;;;13.00;99.90;;;;;;5064784;28;20040;-58
2022/10/16 05:07:30;;;;;;;3.63;2.47;;;13.00;99.90;;;;;;5050053;28;20276;-58
2022/10/16 05:09:56;;;;;;;3.00;1.70;;;13.00;99.90;;;;;;5050298;28;20114;-59
2022/10/16 05:12:21;;;;;;;2.47;2.10;;;13.00;99.90;;;;;;5070534;28;20109;-58
2022/10/16 05:14:47;;;;;;;6.07;2.30;;;13.00;99.90;;;;;;5055462;28;20072;-59
2022/10/16 05:17:13;;;;;;;3.53;1.90;;;13.00;99.90;;;;;;5072297;28;20460;-59
2022/10/16 05:19:38;;;;;;;3.17;1.80;;;13.00;99.90;;;;;;5060399;28;20846;-57
2022/10/16 05:22:04;;;;;;;3.95;2.08;;;13.00;99.90;;;;;;5053483;28;20116;-59
2022/10/16 05:24:29;;;;;;;4.03;2.23;;;13.00;99.90;;;;;;5053580;28;20524;-59
2022/10/16 05:26:55;;;;;;;4.82;1.88;;;13.00;99.90;;;;;;5053384;28;20040;-56
2022/10/16 05:29:20;;;;;;;5.37;2.43;;;13.00;99.90;;;;;;5053164;28;20222;-59
2022/10/16 05:31:46;;;;;;;6.85;2.35;;;13.00;99.90;;;;;;5054568;28;20761;-59
2022/10/16 05:34:12;;;;;;;2.22;1.35;;;12.90;99.90;;;;;;5053058;28;20052;-59
2022/10/16 05:36:37;;;;;;;2.88;1.42;;;12.90;99.90;;;;;;5068956;28;20040;-59
2022/10/16 05:39:03;;;;;;;2.58;1.25;;;12.90;99.90;;;;;;5073172;28;20036;-60
2022/10/16 05:41:29;;;;;;;4.15;1.60;;;12.90;99.90;;;;;;5066215;28;20115;-60
2022/10/16 05:43:54;;;;;;;6.53;1.97;;;12.90;99.90;;;;;;5052340;28;20449;-59
2022/10/16 05:46:20;;;;;;;6.33;2.13;;;12.90;99.90;;;;;;5053380;28;20283;-59
2022/10/16 05:48:45;;;;;;;2.83;2.08;;;12.90;99.90;;;;;;5052941;28;20156;-58
2022/10/16 05:51:13;;;;;;;5.10;2.15;;;12.90;99.90;;;;;;5053974;28;20040;-58
2022/10/16 05:53:40;;;;;;;3.13;1.52;;;12.90;99.90;;;;;;5055768;28;20044;-56
2022/10/16 05:56:08;;;;;;;4.88;1.85;;;12.90;99.90;;;;;;5066822;28;20063;-59
2022/10/16 05:58:35;;;;;;;4.30;2.13;;;12.90;99.90;;;;;;5053199;28;20112;-58
2022/10/16 06:01:04;;;;;;;2.78;1.63;;;12.90;99.90;;;;;;5056623;28;20531;-58
2022/10/16 06:03:30;;;;;;;4.28;2.30;;;12.90;99.90;;;;;;5071633;28;20044;-58
2022/10/16 06:05:55;;;;;;;3.70;1.90;;;12.90;99.90;;;;;;5069596;28;20044;-59
2022/10/16 06:08:22;;;;;;;4.43;1.30;;;12.90;99.90;;;;;;5053782;28;20128;-59
2022/10/16 06:10:49;;;;;;;4.18;1.60;;;12.90;99.90;;;;;;5053155;28;20045;-59
2022/10/16 06:13:15;;;;;;;3.05;1.63;;;12.90;99.90;;;;;;5051858;28;20486;-58
2022/10/16 06:15:42;;;;;;;6.13;1.50;;;12.90;99.90;;;;;;5053418;28;20112;-59
2022/10/16 06:18:09;;;;;;;4.60;1.83;;;12.90;99.90;;;;;;5058136;28;20033;-57
2022/10/16 06:20:34;;;;;;;;;;;12.90;99.90;;;;;;5052684;28;20048;-60
2022/10/16 06:23:00;;;;;;;6.05;1.10;;;12.90;99.90;;;;;;5064849;28;20499;-59
2022/10/16 06:25:25;;;;;;;3.70;2.45;;;12.90;99.90;;;;;;5052205;28;20033;-59
2022/10/16 06:27:51;;;;;;;3.47;1.20;;;12.90;99.90;;;;;;5067660;28;20036;-59
2022/10/16 06:30:17;;;;;;;7.63;1.42;;;13.00;99.90;;;;;;5069576;28;20505;-59
2022/10/16 06:32:42;;;;;;;3.85;1.58;;;13.00;99.90;;;;;;5063159;28;20051;-59
2022/10/16 06:35:08;;;;;;;3.97;1.47;;;13.10;99.90;;;;;;5054041;28;20103;-60
2022/10/16 06:37:33;;;;;;;2.95;1.70;;;13.10;99.90;;;;;;5072160;28;20305;-60
2022/10/16 06:39:59;;;;;;;4.28;1.40;;;13.10;99.90;;;;;;5065048;28;20045;-60
2022/10/16 06:42:25;;;;;;;1.58;1.25;;;13.10;99.90;;;;;;5063599;28;20406;-60
2022/10/16 06:44:51;;;;;;;5.00;1.48;;;13.10;99.90;;;;;;5051670;28;20041;-59
2022/10/16 06:47:17;;;;;;;2.95;1.00;;;13.10;99.90;;;;;;5051765;28;20082;-59
2022/10/16 06:49:42;;;;;;;1.85;1.23;;;13.10;99.90;;;;;;5051782;28;20267;-60
2022/10/16 06:52:08;;;;;;;3.73;1.10;;;13.00;99.90;;;;;;5051962;28;20120;-60
2022/10/16 06:54:33;;;;;;;4.30;1.60;;;13.00;99.90;;;;;;5057064;28;20296;-60
2022/10/16 06:56:59;;;;;;;2.37;1.80;;;13.00;99.90;;;;;;5051468;28;20283;-59
2022/10/16 06:59:25;;;;;;;3.05;1.27;;;13.00;99.90;;;;;;5055077;28;20028;-60
2022/10/16 07:01:51;;;;;;;3.58;1.33;;;13.00;99.90;;;;;;5072406;28;20532;-60
2022/10/16 07:04:16;;;;;;;2.80;1.38;;;13.00;99.90;;;;;;5070441;28;20070;-60
2022/10/16 07:06:42;;;;;;;5.05;1.00;;;13.00;99.90;;;;;;5052565;28;20048;-59
2022/10/16 07:09:10;;;;;;;4.90;1.35;;;13.00;99.90;;;;;;5057130;28;20422;-59
2022/10/16 07:11:37;;;;;;;1.90;1.20;;;13.10;99.90;;;;;;5066553;28;20076;-59
2022/10/16 07:14:03;;;;;;;3.83;1.08;;;13.10;99.90;;;;;;5052012;28;20048;-59
2022/10/16 07:16:31;;;;;;;4.80;1.50;;;13.20;99.90;;;;;;5066379;28;20029;-59
2022/10/16 07:18:58;;;;;;;3.50;1.73;;;13.40;99.90;;;;;;5055522;28;20049;-57
2022/10/16 07:21:26;;;;;;;4.32;1.50;;;13.60;99.90;;;;;;5055031;28;20091;-58
2022/10/16 07:23:53;;;;;;;3.35;1.85;;;13.70;99.90;;;;;;5070701;28;20136;-59
2022/10/16 07:26:18;;;;;;;3.63;1.60;;;13.70;99.90;;;;;;5062499;28;20449;-57
2022/10/16 07:28:44;;;;;;;3.28;1.35;;;13.80;99.90;;;;;;5064418;28;20074;-58
2022/10/16 07:31:13;;;;;;;5.72;1.55;;;13.80;99.90;;;;;;5050839;28;20458;-59
2022/10/16 07:33:40;;;;;;;7.72;1.52;;;13.80;99.90;;;;;;5053328;28;20530;-60
2022/10/16 07:36:05;;;;;;;7.90;1.80;;;13.70;99.90;;;;;;5060063;28;20033;-59
2022/10/16 07:38:31;;;;;;;4.70;1.25;;;13.70;99.90;;;;;;5059077;28;20039;-59
2022/10/16 07:40:58;;;;;;;2.40;1.40;;;13.70;99.90;;;;;;5050980;28;20116;-60
2022/10/16 07:43:24;;;;;;;4.75;1.52;;;13.70;99.90;;;;;;5056152;28;20045;-60
2022/10/16 07:45:50;;;;;;;2.65;0.90;;;13.70;99.90;;;;;;5064007;28;20041;-59
2022/10/16 07:48:17;;;;;;;3.70;1.55;;;13.70;99.90;;;;;;5051989;28;20098;-58
2022/10/16 07:50:43;;;;;;;4.45;1.75;;;13.70;99.90;;;;;;5060269;28;20044;-58
2022/10/16 07:53:09;;;;;;;2.50;1.30;;;13.80;99.90;;;;;;5063836;28;20115;-60
2022/10/16 07:55:34;;;;;;;4.85;1.60;;;13.80;99.90;;;;;;5056637;28;20186;-60
2022/10/16 07:58:00;;;;;;;2.58;1.73;;;13.80;99.90;;;;;;5066583;28;20089;-59
2022/10/16 08:00:26;;;;;;;6.20;0.82;;;13.80;99.90;;;;;;5070177;28;20032;-58
2022/10/16 08:02:51;;;;;;;3.33;1.30;;;13.80;99.90;;;;;;5068337;28;20029;-58
2022/10/16 08:05:17;;;;;;;3.57;0.93;;;13.80;99.90;;;;;;5068598;28;20375;-59
2022/10/16 08:07:42;;;;;;;1.60;0.80;;;13.80;99.90;;;;;;5061761;28;20295;-60
2022/10/16 08:10:18;;;;;;;2.10;0.50;;;13.80;99.90;;;;;;5069958;28;20048;-60
2022/10/16 08:12:43;;;;;;;6.55;0.82;;;13.80;99.90;;;;;;5052771;28;20041;-59
2022/10/16 08:15:09;;;;;;;2.53;0.70;;;13.80;99.90;;;;;;5057826;28;20068;-59
2022/10/16 08:17:35;;;;;;;5.57;1.10;;;13.80;99.90;;;;;;5064435;28;20056;-60
2022/10/16 08:20:01;;;;;;;2.88;1.08;;;13.80;99.90;;;;;;5051888;28;20029;-60
2022/10/16 08:22:27;;;;;;;2.05;0.82;;;13.90;99.90;;;;;;5050085;28;20044;-59
2022/10/16 08:24:52;;;;;;;5.03;0.93;;;13.90;99.90;;;;;;5050084;28;20040;-59
2022/10/16 08:27:18;;;;;;;2.08;1.20;;;13.90;99.90;;;;;;5051286;28;20120;-59
2022/10/16 08:29:43;;;;;;;4.43;1.10;;;14.00;99.90;;;;;;5050271;28;20033;-60
2022/10/16 08:32:09;;;;;;;5.80;1.40;;;14.00;99.90;;;;;;5060968;28;20348;-57
2022/10/16 08:34:34;;;;;;;2.50;1.17;;;14.10;99.90;;;;;;5063292;28;20115;-60
2022/10/16 08:37:00;;;;;;;2.20;1.05;;;14.10;99.90;;;;;;5048102;28;20044;-60
2022/10/16 08:39:25;;;;;;;3.45;1.20;;;14.10;99.90;;;;;;5059908;28;20228;-60
2022/10/16 08:41:59;;;;;;;2.43;1.10;;;14.20;99.90;;;;;;5060632;28;20043;-59
2022/10/16 08:44:41;;;;;;;4.13;1.35;;;14.20;99.90;;;;;;5050450;28;20287;-59
2022/10/16 08:47:19;;;;;;;2.10;0.95;;;14.20;99.90;;;;;;5052072;28;20055;-59
2022/10/16 08:50:11;;;;;;;3.25;1.40;;;14.30;99.90;;;;;;5065871;28;20093;-60
2022/10/16 08:52:41;;;;;;;4.55;1.45;;;14.30;99.90;;;;;;5074368;28;20458;-59
2022/10/16 08:55:21;;;;;;;4.05;0.88;;;14.40;99.90;;;;;;5065060;28;20036;-60
2022/10/16 08:57:46;;;;;;;2.63;1.88;;;14.40;99.90;;;;;;5073374;28;20111;-59
2022/10/16 09:00:13;;;;;;;2.35;1.10;;;14.50;99.90;;;;;;5056219;28;20504;-59
2022/10/16 09:02:49;;;;;;;4.95;0.90;;;14.50;99.90;;;;;;5054167;28;20036;-60
2022/10/16 09:05:22;;;;;;;5.55;1.38;;;14.60;99.90;;;;;;5067917;28;20048;-59
2022/10/16 09:08:05;;;;;;;5.43;0.70;;;14.70;99.90;;;;;;5074357;28;20041;-60
2022/10/16 09:10:54;;;;;;;4.53;1.17;;;14.80;99.90;;;;;;5054911;28;20110;-59
2022/10/16 09:13:32;;;;;;;7.47;1.13;;;14.90;99.90;;;;;;5053172;28;20048;-59
2022/10/16 09:16:21;;;;;;;2.22;0.73;;;15.10;99.90;;;;;;5071275;28;20132;-58
2022/10/16 09:19:02;;;;;;;2.65;0.80;;;15.20;99.90;;;;;;5070365;28;20037;-59
2022/10/16 09:21:35;;;;;;;4.28;0.65;;;15.40;99.90;;;;;;5053371;28;20140;-60
2022/10/16 09:24:21;;;;;;;2.55;1.13;;;15.50;99.90;;;;;;5054104;28;20048;-59
2022/10/16 09:26:47;;;;;;;4.28;0.70;;;15.60;99.90;;;;;;5073080;28;20413;-59
2022/10/16 09:29:14;;;;;;;2.15;0.98;;;15.70;99.90;;;;;;5069959;28;20040;-59
2022/10/16 09:31:41;;;;;;;6.75;0.60;;;15.80;99.90;;;;;;5052338;28;20113;-60
2022/10/16 09:34:32;;;;;;;8.77;0.55;;;15.90;99.90;;;;;;5062295;28;20041;-60
2022/10/16 09:37:01;;;;;;;6.53;0.80;;;15.90;99.90;;;;;;5053357;28;20112;-60
2022/10/16 09:39:26;;;;;;;6.15;0.70;;;16.00;99.90;;;;;;5053307;28;20093;-59
2022/10/16 09:41:52;;;;;;;7.57;1.17;;;16.00;99.90;;;;;;5073420;28;20044;-60
2022/10/16 09:44:31;;;;;;;5.20;0.55;;;16.10;99.90;;;;;;5071003;28;20048;-60
2022/10/16 09:47:05;;;;;;;5.22;0.90;;;16.20;99.90;;;;;;5071520;28;20409;-60
2022/10/16 09:49:30;;;;;;;6.30;0.63;;;16.30;99.90;;;;;;5069863;28;20044;-64
2022/10/16 09:52:25;;;;;;;5.20;0.65;;;16.40;99.90;;;;;;5072106;28;20037;-58
2022/10/16 09:54:55;;;;;;;6.53;0.60;;;16.40;99.90;;;;;;4989727;28;20077;-59
2022/10/16 09:57:21;;;;;;;4.18;0.50;;;16.50;99.90;;;;;;4990328;28;20122;-57
2022/10/16 09:59:48;;;;;;;;;;;16.60;99.90;;;;;;4989270;28;20056;-59
2022/10/16 10:02:16;;;;;;;4.60;0.68;;;16.60;99.90;;;;;;4986105;28;20366;-58
2022/10/16 10:04:49;;;;;;;4.43;0.80;;;16.70;99.90;;;;;;4971479;28;20059;-58
2022/10/16 10:07:24;;;;;;;5.13;0.40;;;16.70;99.90;;;;;;4984317;28;20100;-57
2022/10/16 10:09:49;;;;;;;7.22;0.95;;;16.80;99.90;;;;;;4972483;28;20047;-56
2022/10/16 10:12:24;;;;;;;6.07;0.95;;;16.90;99.90;;;;;;4993361;28;20038;-58
2022/10/16 10:14:56;;;;;;;6.47;0.75;;;16.90;99.90;;;;;;5006455;28;20208;-57
2022/10/16 10:17:24;;;;;;;5.30;0.80;;;16.90;99.90;;;;;;4990261;28;20102;-57
2022/10/16 10:20:11;;;;;;;6.28;0.70;;;16.90;99.90;;;;;;4989489;28;20046;-58
2022/10/16 10:22:42;;;;;;;7.05;1.25;;;17.00;99.90;;;;;;4985624;28;20038;-59
2022/10/16 10:25:13;;;;;;;5.20;0.80;;;17.00;99.90;;;;;;4987819;28;20097;-58
2022/10/16 10:27:41;;;;;;;4.82;0.50;;;17.10;99.90;;;;;;4971082;28;20571;-56
2022/10/16 10:30:14;;;;;;;6.82;0.70;;;17.20;99.90;;;;;;4974077;28;20039;-58
2022/10/16 10:33:05;;;;;;;6.28;0.73;;;17.20;99.90;;;;;;5056349;28;20040;-58
2022/10/16 10:36:01;;;;;;;8.05;1.02;;;17.30;99.90;;;;;;5055723;28;20055;-58
2022/10/16 10:38:53;;;;;;;5.25;0.50;;;17.40;99.90;;;;;;5051651;28;20086;-64
2022/10/16 10:41:44;;;;;;;12.27;1.10;;;17.50;99.90;;;;;;5066782;28;20032;-64
2022/10/16 10:44:16;;;;;;;6.65;0.75;;;17.50;99.90;;;;;;5066137;28;20041;-60
2022/10/16 10:46:49;;;;;;;7.05;1.15;;;17.50;99.90;;;;;;5052069;28;20567;-60
2022/10/16 10:49:45;;;;;;;6.38;1.73;;;17.60;99.90;;;;;;5051989;28;20059;-59
2022/10/16 10:52:31;;;;;;;6.82;1.10;;;17.60;99.90;;;;;;5068111;28;20044;-58
2022/10/16 10:55:34;;;;;;;7.80;0.85;;;17.60;99.90;;;;;;5070528;28;20382;-61
2022/10/16 10:58:31;;;;;;;11.57;1.08;;;17.50;99.90;;;;;;5053020;28;20056;-60
2022/10/16 11:01:05;;;;;;;6.35;0.95;;;17.50;99.90;;;;;;5052959;28;20037;-60
2022/10/16 11:03:55;;;;;;;8.13;0.90;;;17.60;99.90;;;;;;5051960;28;20041;-59
2022/10/16 11:06:24;;;;;;;7.22;0.73;;;17.60;99.90;;;;;;5059745;28;20046;-60
2022/10/16 11:09:02;;;;;;;9.57;0.82;;;17.70;99.90;;;;;;5054401;28;20051;-61
2022/10/16 11:11:43;;;;;;;7.63;0.85;;;17.70;99.90;;;;;;5059269;28;20063;-60
2022/10/16 11:14:33;;;;;;;8.45;0.88;;;17.70;99.90;;;;;;5051024;28;20047;-60
2022/10/16 11:17:08;;;;;;;8.98;1.15;;;17.90;99.90;;;;;;5052555;28;20108;-60
2022/10/16 11:19:56;;;;;;;4.40;0.73;;;18.00;99.90;;;;;;5067291;28;20390;-61
2022/10/16 11:22:36;;;;;;;4.85;1.02;;;17.90;99.90;;;;;;5056438;28;20033;-60
2022/10/16 11:25:22;;;;;;;6.32;0.80;;;17.90;99.90;;;;;;5051297;28;20037;-61
2022/10/16 11:27:52;;;;;;;12.07;1.33;;;18.00;99.90;;;;;;5062192;28;20048;-61
2022/10/16 11:30:26;;;;;;;10.95;1.60;;;17.90;99.90;;;;;;5070533;28;20447;-61
2022/10/16 11:33:06;;;;;;;9.77;0.90;;;17.80;99.90;;;;;;5052994;28;20044;-61
2022/10/16 11:35:44;;;;;;;8.32;0.90;;;17.70;99.90;;;;;;5050913;28;20056;-60
2022/10/16 11:38:41;;;;;;;4.32;0.50;;;17.60;99.90;;;;;;5068764;28;20052;-61
2022/10/16 11:41:24;;;;;;;3.08;0.80;;;17.60;99.90;;;;;;5059796;28;20059;-62
2022/10/16 11:44:06;;;;;;;7.22;0.93;;;17.70;99.90;;;;;;5054255;28;20421;-61
2022/10/16 11:46:33;;;;;;;7.18;1.08;;;17.60;99.90;;;;;;5064535;28;20037;-61
2022/10/16 11:49:20;;;;;;;6.40;0.60;;;17.70;99.90;;;;;;5061770;28;20041;-61
2022/10/16 11:51:59;;;;;;;9.57;1.02;;;17.80;99.90;;;;;;5064620;28;20562;-61
2022/10/16 11:54:51;;;;;;;4.72;0.63;;;17.90;99.90;;;;;;5050591;28;20052;-60
2022/10/16 11:57:42;;;;;;;5.60;0.43;;;17.80;99.90;;;;;;5051645;28;20550;-60
2022/10/16 12:00:10;;;;;;;7.63;1.05;;;17.80;99.90;;;;;;5051504;28;20160;-61
2022/10/16 12:03:21;;;;;;;5.50;0.50;;;17.90;99.90;;;;;;5058951;28;20394;-61
2022/10/16 12:05:57;;;;;;;6.05;0.63;;;17.80;99.90;;;;;;5048291;28;20049;-61
2022/10/16 12:08:23;;;;;;;9.57;1.15;;;17.70;99.90;;;;;;5051694;28;20406;-61
2022/10/16 12:10:49;;;;;;;6.63;0.60;;;17.60;99.90;;;;;;5050474;28;20044;-60
2022/10/16 12:13:39;;;;;;;9.45;1.05;;;17.40;99.90;;;;;;5064508;28;20047;-61
2022/10/16 12:16:12;;;;;;;6.25;0.93;;;17.40;99.90;;;;;;5070561;28;20047;-61
2022/10/16 12:18:44;;;;;;;5.38;0.70;;;17.40;99.90;;;;;;5067994;28;20043;-62
2022/10/16 12:21:13;;;;;;;6.03;0.77;;;17.40;99.90;;;;;;5070067;28;20051;-61
2022/10/16 12:23:52;;;;;;;5.95;0.77;;;17.50;99.90;;;;;;5053052;28;20715;-60
2022/10/16 12:26:29;;;;;;;8.30;1.35;;;17.60;99.90;;;;;;5061627;28;20206;-60
2022/10/16 12:29:13;;;;;;;6.30;1.20;;;17.70;99.90;;;;;;5065807;28;20647;-60
2022/10/16 12:31:45;;;;;;;8.38;1.27;;;17.80;99.90;;;;;;5062929;28;20119;-61
2022/10/16 12:34:25;;;;;;;5.22;1.08;;;18.00;99.90;;;;;;5070039;28;20056;-61
2022/10/16 12:36:51;;;;;;;8.73;0.85;;;18.10;99.20;;;;;;5059319;28;20041;-60
2022/10/16 12:39:23;;;;;;;4.13;0.40;;;18.30;99.90;;;;;;5063126;28;20466;-61
2022/10/16 12:42:01;;;;;;;8.30;0.47;;;18.40;99.60;;;;;;5058139;28;20063;-59
2022/10/16 12:44:33;;;;;;;11.32;1.00;;;18.50;98.70;;;;;;5063053;28;20041;-61
2022/10/16 12:46:58;;;;;;;6.35;0.75;;;18.60;98.80;;;;;;5058349;28;20048;-61
2022/10/16 12:49:38;;;;;;;7.50;0.60;;;18.60;98.70;;;;;;5051779;28;20033;-61
2022/10/16 12:52:04;;;;;;;8.38;0.82;;;18.70;99.10;;;;;;5053394;28;20524;-61
2022/10/16 12:54:31;;;;;;;6.40;0.60;;;18.80;98.50;;;;;;5049328;28;20052;-61
2022/10/16 12:57:34;;;;;;;8.75;1.13;;;18.80;98.50;;;;;;5059607;28;20064;-61
2022/10/16 13:00:28;;;;;;;4.25;0.50;;;18.90;97.80;;;;;;5052712;28;20409;-61
2022/10/16 13:03:23;;;;;;;6.20;0.50;;;18.80;96.40;;;;;;5066204;28;20051;-61
2022/10/16 13:06:03;;;;;;;16.25;0.93;;;18.60;96.50;;;;;;5069432;28;20067;-61
2022/10/16 13:08:42;;;;;;;5.35;1.30;;;18.40;96.10;;;;;;5048534;28;20509;-61